createdAt,value
2023-05-02T00:02:36.073Z,8.93
2023-05-02T00:07:41.832Z,9.52
2023-05-02T00:12:47.045Z,8.63
2023-05-02T00:17:52.256Z,7.40
2023-05-02T00:23:00.411Z,9.52
2023-05-02T00:28:06.335Z,7.07
2023-05-02T00:33:13.415Z,6.95
2023-05-02T00:38:18.891Z,9.05
2023-05-02T00:43:24.997Z,7.90
2023-05-02T00:48:30.956Z,9.40
2023-05-02T00:53:37.057Z,7.63
2023-05-02T00:58:43.135Z,9.88
2023-05-02T01:04:01.966Z,9.80
2023-05-02T01:09:31.953Z,7.63
2023-05-02T01:14:47.781Z,9.70
2023-05-02T01:19:57.431Z,8.30
2023-05-02T01:25:52.132Z,8.98
2023-05-02T01:30:57.695Z,9.35
2023-05-02T01:36:04.185Z,8.25
2023-05-02T01:41:11.828Z,7.45
2023-05-02T01:46:18.159Z,8.85
2023-05-02T01:51:32.513Z,7.97
2023-05-02T01:56:40.285Z,9.88
2023-05-02T02:01:47.042Z,9.23
2023-05-02T02:07:00.638Z,7.68
2023-05-02T02:17:26.907Z,9.18
2023-05-02T02:22:38.113Z,7.20
2023-05-02T02:27:44.499Z,8.20
2023-05-02T02:32:49.974Z,8.02
2023-05-02T02:38:40.781Z,8.20
2023-05-02T02:43:54.873Z,10.50
2023-05-02T02:49:37.703Z,10.40
2023-05-02T02:55:00.216Z,8.73
2023-05-02T03:00:21.952Z,8.48
2023-05-02T03:05:27.159Z,8.68
2023-05-02T03:10:34.303Z,10.43
2023-05-02T03:15:54.445Z,9.13
2023-05-02T03:21:07.568Z,11.43
2023-05-02T03:26:14.220Z,7.38
2023-05-02T03:31:18.627Z,8.00
2023-05-02T03:36:24.038Z,7.05
2023-05-02T03:41:32.578Z,8.98
2023-05-02T03:46:43.846Z,9.65
2023-05-02T03:51:50.735Z,9.32
2023-05-02T03:57:05.378Z,9.95
2023-05-02T04:02:13.031Z,7.78
2023-05-02T04:07:26.418Z,7.97
2023-05-02T04:12:37.979Z,8.30
2023-05-02T04:17:42.725Z,8.55
2023-05-02T04:22:50.817Z,8.35
2023-05-02T04:27:57.735Z,7.22
2023-05-02T04:33:04.306Z,8.85
2023-05-02T04:38:16.504Z,12.52
2023-05-02T04:43:24.934Z,11.13
2023-05-02T04:48:35.447Z,6.85
2023-05-02T04:53:44.732Z,8.18
2023-05-02T05:06:39.272Z,7.97
2023-05-02T05:11:47.709Z,6.72
2023-05-02T05:16:53.859Z,7.10
2023-05-02T06:05:40.073Z,7.20
2023-05-02T06:10:45.541Z,7.95
2023-05-02T06:15:50.514Z,8.10
2023-05-02T06:20:55.549Z,8.20
2023-05-02T06:26:04.495Z,6.40
2023-05-02T06:31:08.895Z,7.88
2023-05-02T06:36:13.213Z,7.82
2023-05-02T06:41:18.302Z,7.15
2023-05-02T06:46:22.870Z,8.02
2023-05-02T06:51:28.293Z,7.25
2023-05-02T06:56:36.030Z,5.85
2023-05-02T07:01:40.392Z,7.45
2023-05-02T07:06:44.893Z,6.43
2023-05-02T07:11:51.090Z,6.00
2023-05-02T07:16:55.496Z,5.03
2023-05-02T07:21:59.871Z,6.88
2023-05-02T08:33:56.685Z,7.32
2023-05-02T08:39:00.989Z,5.63
2023-05-02T08:44:08.522Z,7.97
2023-05-02T08:49:14.460Z,7.13
2023-05-02T08:54:20.547Z,5.85
2023-05-02T08:59:24.772Z,11.15
2023-05-02T09:04:35.449Z,7.68
2023-05-02T09:09:39.665Z,5.57
2023-05-02T09:14:45.951Z,8.60
2023-05-02T09:20:01.562Z,7.70
2023-05-02T09:25:08.353Z,8.15
2023-05-02T09:30:27.009Z,7.45
2023-05-02T09:35:31.605Z,7.63
2023-05-02T09:40:36.638Z,6.88
2023-05-02T09:45:40.990Z,7.65
2023-05-02T09:50:45.240Z,7.65
2023-05-02T09:55:59.824Z,7.15
2023-05-02T10:01:04.467Z,6.40
2023-05-02T10:06:10.871Z,5.65
2023-05-02T10:11:15.996Z,6.22
2023-05-02T10:16:29.687Z,5.57
2023-05-02T10:21:35.468Z,6.95
2023-05-02T10:26:40.367Z,5.55
2023-05-02T10:31:46.410Z,7.55
2023-05-02T10:36:50.474Z,7.63
2023-05-02T10:41:56.308Z,19.40
2023-05-02T10:47:00.974Z,7.80
2023-05-02T10:52:34.895Z,5.18
2023-05-02T10:58:01.918Z,4.93
2023-05-02T11:03:06.947Z,5.47
2023-05-02T11:08:20.270Z,5.18
2023-05-02T11:13:51.598Z,5.82
2023-05-02T11:19:02.214Z,7.05
2023-05-02T11:24:41.673Z,5.70
2023-05-02T11:29:56.884Z,6.15
2023-05-02T11:35:02.798Z,5.40
2023-05-02T11:40:14.746Z,4.28
2023-05-02T11:45:19.348Z,5.53
2023-05-02T11:50:26.865Z,4.85
2023-05-02T11:55:32.148Z,4.93
2023-05-02T12:00:37.330Z,4.97
2023-05-02T12:05:41.634Z,6.80
2023-05-02T12:10:46.775Z,9.38
2023-05-02T12:15:52.594Z,4.85
2023-05-02T12:20:57.829Z,5.88
2023-05-02T12:26:22.689Z,5.75
2023-05-02T12:31:29.593Z,4.95
2023-05-02T12:36:34.855Z,3.53
2023-05-02T12:41:44.430Z,4.60
2023-05-02T12:47:02.076Z,3.97
2023-05-02T12:52:06.243Z,4.85
2023-05-02T12:57:11.228Z,6.65
2023-05-02T13:02:16.884Z,4.80
2023-05-02T13:07:22.176Z,7.28
2023-05-02T13:12:27.802Z,4.05
2023-05-02T13:17:33.742Z,6.90
2023-05-02T13:22:39.430Z,3.95
2023-05-02T13:27:46.545Z,7.63
2023-05-02T13:32:51.993Z,7.28
2023-05-02T13:37:57.554Z,5.38
2023-05-02T13:43:03.218Z,5.15
2023-05-02T13:48:08.863Z,6.80
2023-05-02T13:53:14.532Z,7.55
2023-05-02T13:58:19.863Z,7.85
2023-05-02T14:03:25.647Z,7.45
2023-05-02T14:08:31.197Z,10.02
2023-05-02T14:13:36.567Z,8.38
2023-05-02T14:18:42.363Z,6.97
2023-05-02T14:23:47.762Z,9.20
2023-05-02T14:28:53.474Z,9.27
2023-05-02T14:33:59.026Z,7.32
2023-05-02T14:39:04.633Z,11.30
2023-05-02T14:44:10.567Z,7.45
2023-05-02T14:49:16.121Z,6.93
2023-05-02T14:54:29.192Z,10.10
2023-05-02T15:04:41.966Z,8.73
2023-05-02T15:09:47.405Z,11.10
2023-05-02T15:14:53.038Z,6.80
2023-05-02T15:19:58.670Z,6.00
2023-05-02T15:25:05.300Z,6.30
2023-05-02T15:30:12.168Z,5.95
2023-05-02T15:35:17.878Z,6.53
2023-05-02T15:40:23.401Z,6.03
2023-05-02T15:45:28.566Z,6.95
2023-05-02T15:50:34.288Z,6.05
2023-05-02T15:55:39.934Z,5.93
2023-05-02T16:00:46.695Z,5.28
2023-05-02T16:05:54.724Z,5.53
2023-05-02T16:11:02.258Z,4.53
2023-05-02T16:16:08.286Z,5.22
2023-05-02T16:21:14.109Z,4.53
2023-05-02T16:26:21.340Z,7.25
2023-05-02T16:31:27.008Z,5.10
2023-05-02T16:36:32.309Z,4.45
2023-05-02T16:41:37.906Z,4.55
2023-05-02T16:46:43.735Z,5.95
2023-05-02T16:51:52.396Z,5.45
2023-05-02T16:56:58.026Z,6.22
2023-05-02T17:02:03.640Z,9.13
2023-05-02T17:07:11.782Z,6.97
2023-05-02T17:12:24.901Z,6.82
2023-05-02T17:17:29.745Z,5.57
2023-05-02T17:22:36.197Z,12.60
2023-05-02T17:27:41.681Z,5.30
2023-05-02T17:32:47.500Z,9.13
2023-05-02T17:37:53.365Z,10.35
2023-05-02T17:43:00.034Z,6.70
2023-05-02T17:48:07.051Z,9.30
2023-05-02T17:53:13.225Z,14.25
2023-05-02T17:58:19.191Z,8.98
2023-05-02T18:03:25.249Z,10.07
2023-05-02T18:08:32.111Z,4.30
2023-05-02T18:13:40.282Z,6.18
2023-05-02T18:18:46.206Z,4.78
2023-05-02T18:23:52.096Z,5.15
2023-05-02T18:28:57.942Z,5.38
2023-05-02T18:34:03.611Z,4.60
2023-05-02T18:39:08.910Z,3.75
2023-05-02T18:44:14.293Z,4.05
2023-05-02T18:49:20.154Z,3.83
2023-05-02T18:54:26.839Z,5.22
2023-05-02T18:59:32.200Z,3.50
2023-05-02T19:04:37.651Z,3.65
2023-05-02T19:09:43.238Z,4.20
2023-05-02T19:14:51.006Z,3.72
2023-05-02T19:19:58.277Z,3.97
2023-05-02T19:25:04.571Z,4.80
2023-05-02T19:30:10.550Z,4.60
2023-05-02T19:35:16.325Z,2.65
2023-05-02T19:40:21.851Z,2.80
2023-05-02T19:45:28.396Z,3.38
2023-05-02T19:50:34.118Z,2.40
2023-05-02T19:55:39.725Z,2.35
2023-05-02T20:00:46.761Z,2.17
2023-05-02T20:05:52.711Z,1.90
2023-05-02T20:10:58.301Z,4.75
2023-05-02T20:16:03.875Z,2.25
2023-05-02T20:21:09.749Z,1.63
2023-05-02T20:26:16.892Z,1.90
2023-05-02T20:31:23.092Z,2.15
2023-05-02T20:36:30.002Z,2.13
2023-05-02T20:41:36.870Z,2.08
2023-05-02T20:46:43.147Z,4.15
2023-05-02T20:51:48.558Z,2.80
2023-05-02T20:56:53.930Z,2.33
2023-05-02T21:02:00.354Z,1.27
2023-05-02T21:07:05.905Z,2.03
2023-05-02T21:12:11.699Z,3.97
2023-05-02T21:17:17.393Z,3.28
2023-05-02T21:22:23.033Z,1.52
2023-05-02T21:27:28.579Z,0.93
2023-05-02T21:32:34.070Z,1.52
2023-05-02T21:37:39.915Z,1.88
2023-05-02T21:42:45.494Z,2.80
2023-05-02T21:47:51.003Z,1.13
2023-05-02T21:52:56.498Z,1.95
2023-05-02T21:58:01.979Z,2.05
2023-05-02T22:03:09.548Z,1.65
2023-05-02T22:08:15.164Z,2.28
2023-05-02T22:13:20.762Z,1.80
2023-05-02T22:18:26.452Z,2.30
2023-05-02T22:23:32.310Z,1.23
2023-05-02T22:28:37.774Z,2.08
2023-05-02T22:33:45.238Z,1.67
2023-05-02T22:38:50.937Z,1.55
2023-05-02T22:43:56.308Z,1.58
2023-05-02T22:49:03.456Z,1.50
2023-05-02T22:54:09.138Z,1.52
2023-05-02T22:59:15.948Z,1.40
2023-05-02T23:04:21.904Z,4.55
2023-05-02T23:09:27.493Z,1.48
2023-05-02T23:14:32.847Z,1.75
2023-05-02T23:19:38.487Z,1.73
2023-05-02T23:24:48.132Z,1.73
2023-05-02T23:29:53.714Z,1.13
2023-05-02T23:34:59.364Z,1.80
2023-05-02T23:40:05.649Z,1.75
2023-05-02T23:45:12.558Z,1.15
2023-05-02T23:50:19.032Z,1.85
2023-05-02T23:55:24.662Z,1.40
